createdAt,value
2022-11-03T00:00:59.056Z,99.99
2022-11-03T00:01:59.215Z,99.99
2022-11-03T00:02:59.166Z,99.99
2022-11-03T00:03:59.085Z,99.99
2022-11-03T00:04:59.093Z,99.99
2022-11-03T00:05:59.104Z,99.99
2022-11-03T00:06:59.112Z,99.99
2022-11-03T00:07:59.184Z,99.91
2022-11-03T00:08:59.129Z,99.06
2022-11-03T00:09:59.141Z,98.78
2022-11-03T00:10:59.148Z,98.97
2022-11-03T00:11:59.177Z,98.78
2022-11-03T00:12:59.171Z,97.92
2022-11-03T00:13:59.181Z,97.45
2022-11-03T00:14:59.193Z,97.64
2022-11-03T00:15:59.195Z,97.45
2022-11-03T00:16:59.202Z,97.64
2022-11-03T00:17:59.213Z,97.64
2022-11-03T00:18:59.223Z,97.74
2022-11-03T00:19:59.294Z,97.74
2022-11-03T00:20:59.241Z,97.74
2022-11-03T00:21:59.250Z,97.55
2022-11-03T00:22:59.260Z,97.45
2022-11-03T00:23:59.268Z,97.26
2022-11-03T00:24:59.276Z,97.55
2022-11-03T00:25:59.287Z,97.83
2022-11-03T00:26:59.294Z,98.40
2022-11-03T00:27:59.397Z,98.68
2022-11-03T00:28:59.311Z,99.06
2022-11-03T00:29:59.324Z,97.74
2022-11-03T00:30:59.329Z,97.92
2022-11-03T00:31:59.337Z,97.55
2022-11-03T00:32:59.348Z,97.36
2022-11-03T00:33:59.358Z,97.26
2022-11-03T00:34:59.367Z,96.78
2022-11-03T00:35:59.382Z,96.12
2022-11-03T00:36:59.383Z,96.88
2022-11-03T00:37:59.491Z,97.07
2022-11-03T00:38:59.399Z,97.64
2022-11-03T00:39:59.412Z,97.83
2022-11-03T00:40:59.421Z,98.02
2022-11-03T00:41:59.443Z,97.55
2022-11-03T00:42:59.473Z,98.30
2022-11-03T00:43:59.634Z,97.74
2022-11-03T00:44:59.457Z,97.55
2022-11-03T00:45:59.468Z,97.83
2022-11-03T00:46:59.471Z,98.30
2022-11-03T00:47:59.498Z,98.78
2022-11-03T00:48:59.487Z,98.97
2022-11-03T00:49:59.499Z,99.16
2022-11-03T00:50:59.507Z,99.44
2022-11-03T00:51:59.520Z,98.78
2022-11-03T00:52:59.534Z,98.68
2022-11-03T00:53:59.548Z,98.68
2022-11-03T00:54:59.543Z,98.87
2022-11-03T00:55:59.550Z,98.21
2022-11-03T00:56:59.567Z,97.83
2022-11-03T00:57:59.570Z,97.26
2022-11-03T00:58:59.574Z,97.45
2022-11-03T00:59:59.606Z,97.92
2022-11-03T01:00:59.662Z,97.74
2022-11-03T01:01:59.717Z,98.11
2022-11-03T01:02:59.611Z,98.11
2022-11-03T01:03:59.622Z,98.30
2022-11-03T01:04:59.628Z,98.02
2022-11-03T01:05:59.639Z,97.83
2022-11-03T01:06:59.679Z,97.26
2022-11-03T01:08:59.664Z,96.12
2022-11-03T01:09:59.675Z,96.03
2022-11-03T01:10:59.682Z,95.65
2022-11-03T01:11:59.698Z,95.17
2022-11-03T01:12:59.701Z,95.17
2022-11-03T01:13:59.708Z,94.70
2022-11-03T01:14:59.720Z,94.60
2022-11-03T01:15:59.743Z,93.75
2022-11-03T01:16:59.738Z,93.75
2022-11-03T01:17:59.743Z,93.75
2022-11-03T01:18:59.755Z,94.03
2022-11-03T01:19:59.771Z,94.03
2022-11-03T01:20:59.779Z,93.65
2022-11-03T01:21:59.782Z,93.84
2022-11-03T01:22:59.800Z,94.23
2022-11-03T01:23:59.798Z,94.42
2022-11-03T01:24:59.811Z,94.23
2022-11-03T01:25:59.821Z,94.42
2022-11-03T01:26:59.825Z,95.17
2022-11-03T01:27:59.907Z,95.27
2022-11-03T01:28:59.844Z,94.98
2022-11-03T01:29:59.853Z,94.98
2022-11-03T01:30:59.861Z,95.17
2022-11-03T01:31:59.889Z,95.46
2022-11-03T01:32:59.886Z,94.32
2022-11-03T01:33:59.888Z,93.84
2022-11-03T01:34:59.897Z,93.56
2022-11-03T01:35:59.902Z,93.94
2022-11-03T01:36:59.918Z,92.71
2022-11-03T01:37:59.929Z,92.90
2022-11-03T01:38:59.931Z,92.90
2022-11-03T01:39:59.939Z,92.71
2022-11-03T01:40:59.954Z,92.71
2022-11-03T01:41:59.960Z,92.80
2022-11-03T01:42:59.968Z,92.90
2022-11-03T01:43:59.974Z,92.99
2022-11-03T01:44:59.995Z,93.18
2022-11-03T01:45:59.992Z,92.90
2022-11-03T01:47:00.003Z,92.90
2022-11-03T01:48:00.229Z,92.90
2022-11-03T01:49:00.022Z,92.71
2022-11-03T01:50:00.029Z,92.42
2022-11-03T01:51:00.037Z,92.14
2022-11-03T01:52:00.055Z,92.04
2022-11-03T01:53:00.057Z,91.56
2022-11-03T01:54:00.074Z,91.94
2022-11-03T01:55:00.087Z,91.66
2022-11-03T01:56:00.086Z,92.04
2022-11-03T01:57:00.101Z,92.90
2022-11-03T01:58:00.105Z,93.75
2022-11-03T01:59:00.114Z,94.13
2022-11-03T02:00:00.120Z,94.51
2022-11-03T02:01:00.193Z,94.51
2022-11-03T02:02:00.395Z,94.70
2022-11-03T02:03:00.151Z,95.46
2022-11-03T02:04:00.171Z,95.36
2022-11-03T02:05:00.195Z,96.22
2022-11-03T02:06:00.170Z,96.50
2022-11-03T02:07:00.183Z,97.17
2022-11-03T02:08:00.260Z,97.26
2022-11-03T02:09:00.197Z,96.88
2022-11-03T02:10:00.314Z,96.97
2022-11-03T02:11:00.218Z,97.17
2022-11-03T02:12:00.224Z,97.07
2022-11-03T02:13:00.234Z,96.88
2022-11-03T02:14:00.242Z,96.69
2022-11-03T02:15:00.254Z,97.55
2022-11-03T02:16:00.259Z,97.92
2022-11-03T02:17:00.271Z,97.26
2022-11-03T02:18:00.287Z,98.78
2022-11-03T02:19:00.287Z,98.68
2022-11-03T02:20:00.328Z,98.59
2022-11-03T02:21:00.305Z,98.68
2022-11-03T02:22:00.312Z,98.30
2022-11-03T02:23:00.324Z,96.88
2022-11-03T02:24:00.349Z,97.07
2022-11-03T02:25:00.339Z,96.97
2022-11-03T02:26:00.344Z,95.93
2022-11-03T02:27:00.359Z,95.07
2022-11-03T02:28:00.363Z,94.89
2022-11-03T02:29:00.380Z,94.32
2022-11-03T02:30:00.404Z,94.32
2022-11-03T02:31:00.390Z,94.32
2022-11-03T02:32:00.400Z,94.60
2022-11-03T02:33:00.408Z,93.56
2022-11-03T02:34:00.424Z,94.23
2022-11-03T02:35:00.427Z,94.23
2022-11-03T02:36:00.451Z,94.03
2022-11-03T02:37:00.442Z,93.75
2022-11-03T02:38:00.450Z,92.99
2022-11-03T02:39:00.463Z,92.90
2022-11-03T02:40:00.466Z,92.90
2022-11-03T02:41:00.479Z,91.94
2022-11-03T02:42:00.488Z,91.94
2022-11-03T02:43:00.515Z,91.19
2022-11-03T02:44:00.516Z,91.28
2022-11-03T02:45:00.516Z,91.09
2022-11-03T02:46:00.524Z,91.00
2022-11-03T02:47:00.631Z,90.71
2022-11-03T02:48:00.537Z,90.71
2022-11-03T02:49:00.548Z,90.43
2022-11-03T02:50:00.559Z,90.52
2022-11-03T02:51:00.566Z,90.81
2022-11-03T02:52:00.638Z,91.00
2022-11-03T02:53:00.662Z,91.19
2022-11-03T02:54:00.591Z,90.52
2022-11-03T02:55:00.601Z,91.00
2022-11-03T02:56:00.606Z,90.90
2022-11-03T02:57:00.619Z,91.85
2022-11-03T02:58:00.624Z,92.61
2022-11-03T02:59:00.656Z,92.52
2022-11-03T03:00:00.644Z,92.71
2022-11-03T03:01:00.682Z,92.90
2022-11-03T03:02:00.857Z,92.71
2022-11-03T03:03:00.670Z,91.85
2022-11-03T03:04:00.678Z,91.00
2022-11-03T03:05:00.689Z,91.28
2022-11-03T03:06:00.695Z,91.38
2022-11-03T03:07:00.704Z,91.75
2022-11-03T03:08:00.729Z,92.23
2022-11-03T03:09:00.723Z,92.23
2022-11-03T03:10:00.728Z,92.14
2022-11-03T03:11:00.739Z,92.33
2022-11-03T03:12:00.754Z,91.56
2022-11-03T03:13:00.758Z,91.00
2022-11-03T03:14:00.762Z,90.81
2022-11-03T03:15:00.774Z,90.14
2022-11-03T03:16:00.780Z,90.43
2022-11-03T03:17:00.801Z,90.71
2022-11-03T03:18:00.814Z,90.90
2022-11-03T03:19:00.811Z,89.95
2022-11-03T03:20:00.822Z,89.86
2022-11-03T03:21:00.826Z,89.48
2022-11-03T03:22:00.833Z,89.48
2022-11-03T03:23:00.845Z,89.58
2022-11-03T03:24:00.870Z,89.39
2022-11-03T03:25:00.862Z,89.29
2022-11-03T03:26:00.871Z,88.81
2022-11-03T03:27:00.879Z,88.34
2022-11-03T03:28:00.888Z,88.06
2022-11-03T03:29:00.902Z,87.49
2022-11-03T03:30:00.932Z,88.06
2022-11-03T03:31:00.915Z,88.62
2022-11-03T03:32:00.928Z,88.91
2022-11-03T03:33:00.931Z,88.62
2022-11-03T03:34:04.926Z,88.43
2022-11-03T03:35:00.949Z,88.72
2022-11-03T03:36:00.968Z,88.34
2022-11-03T03:37:00.969Z,87.68
2022-11-03T03:38:00.975Z,87.39
2022-11-03T03:39:00.986Z,87.58
2022-11-03T03:40:01.009Z,87.77
2022-11-03T03:41:01.001Z,87.77
2022-11-03T03:42:01.011Z,87.87
2022-11-03T03:43:01.020Z,88.34
2022-11-03T03:44:01.033Z,88.81
2022-11-03T03:45:01.035Z,88.62
2022-11-03T03:46:01.046Z,89.00
2022-11-03T03:47:01.154Z,88.81
2022-11-03T03:48:01.061Z,88.91
2022-11-03T03:49:01.076Z,89.00
2022-11-03T03:50:01.080Z,88.24
2022-11-03T03:51:01.090Z,88.06
2022-11-03T03:52:01.100Z,88.06
2022-11-03T03:53:01.160Z,87.87
2022-11-03T03:54:01.116Z,87.87
2022-11-03T03:55:01.124Z,87.77
2022-11-03T03:56:01.164Z,87.87
2022-11-03T03:57:01.198Z,88.81
2022-11-03T03:58:01.147Z,88.62
2022-11-03T03:59:01.160Z,88.62
2022-11-03T04:00:01.163Z,88.62
2022-11-03T04:01:01.207Z,88.53
2022-11-03T04:02:01.397Z,88.72
2022-11-03T04:03:01.197Z,88.62
2022-11-03T04:04:01.202Z,88.72
2022-11-03T04:05:01.215Z,89.20
2022-11-03T04:06:01.224Z,88.53
2022-11-03T04:07:01.232Z,88.53
2022-11-03T04:08:01.235Z,88.91
2022-11-03T04:09:01.245Z,89.39
2022-11-03T04:10:01.262Z,90.00
2022-11-03T04:11:01.266Z,90.71
2022-11-03T04:12:01.291Z,90.43
2022-11-03T04:13:01.287Z,90.33
2022-11-03T04:14:01.288Z,90.29
2022-11-03T04:15:01.297Z,90.00
2022-11-03T04:16:01.314Z,89.53
2022-11-03T04:17:01.315Z,89.25
2022-11-03T04:18:01.323Z,88.96
2022-11-03T04:19:01.332Z,87.96
2022-11-03T04:20:01.337Z,88.06
2022-11-03T04:21:01.351Z,88.15
2022-11-03T04:22:01.367Z,88.43
2022-11-03T04:23:01.365Z,88.06
2022-11-03T04:24:01.381Z,88.15
2022-11-03T04:25:01.393Z,88.34
2022-11-03T04:26:01.390Z,88.34
2022-11-03T04:27:01.400Z,88.15
2022-11-03T04:28:01.426Z,87.92
2022-11-03T04:29:01.415Z,88.15
2022-11-03T04:30:01.423Z,88.34
2022-11-03T04:31:01.437Z,88.53
2022-11-03T04:32:01.441Z,88.34
2022-11-03T04:33:01.452Z,88.58
2022-11-03T04:34:01.464Z,88.20
2022-11-03T04:35:01.471Z,88.20
2022-11-03T04:36:01.484Z,88.62
2022-11-03T04:37:01.487Z,88.06
2022-11-03T04:38:01.494Z,88.15
2022-11-03T04:39:01.509Z,88.34
2022-11-03T04:40:01.528Z,88.20
2022-11-03T04:41:01.520Z,88.29
2022-11-03T04:42:01.528Z,88.20
2022-11-03T04:43:01.539Z,88.68
2022-11-03T04:44:01.562Z,88.39
2022-11-03T04:45:01.557Z,88.10
2022-11-03T04:46:01.577Z,88.01
2022-11-03T04:47:01.573Z,88.39
2022-11-03T04:48:01.579Z,88.10
2022-11-03T04:49:01.589Z,87.82
2022-11-03T04:50:01.602Z,87.92
2022-11-03T04:51:01.607Z,87.82
2022-11-03T04:52:01.613Z,87.25
2022-11-03T04:53:01.623Z,87.06
2022-11-03T04:54:01.630Z,86.87
2022-11-03T04:55:01.641Z,87.25
2022-11-03T04:56:07.278Z,86.30
2022-11-03T04:57:01.658Z,86.59
2022-11-03T04:58:01.666Z,86.30
2022-11-03T04:59:01.675Z,85.93
2022-11-03T05:00:01.701Z,85.74
2022-11-03T05:01:01.805Z,85.83
2022-11-03T05:02:01.929Z,86.02
2022-11-03T05:03:01.710Z,85.59
2022-11-03T05:04:01.721Z,85.26
2022-11-03T05:05:01.727Z,85.11
2022-11-03T05:06:01.746Z,85.07
2022-11-03T05:07:01.744Z,85.11
2022-11-03T05:08:01.754Z,85.97
2022-11-03T05:09:01.771Z,86.02
2022-11-03T05:10:01.801Z,86.97
2022-11-03T05:11:01.780Z,86.97
2022-11-03T05:12:01.788Z,87.35
2022-11-03T05:13:01.797Z,87.63
2022-11-03T05:14:01.803Z,87.63
2022-11-03T05:15:01.823Z,87.92
2022-11-03T05:16:01.840Z,87.63
2022-11-03T05:17:01.831Z,87.45
2022-11-03T05:18:01.842Z,86.97
2022-11-03T05:19:01.866Z,86.68
2022-11-03T05:20:01.854Z,86.49
2022-11-03T05:21:01.869Z,86.11
2022-11-03T05:22:01.873Z,86.21
2022-11-03T05:23:01.883Z,86.11
2022-11-03T05:24:01.952Z,85.93
2022-11-03T05:25:01.907Z,86.30
2022-11-03T05:26:01.909Z,86.11
2022-11-03T05:27:01.924Z,86.49
2022-11-03T05:28:01.933Z,86.40
2022-11-03T05:29:01.934Z,86.40
2022-11-03T05:30:01.942Z,87.25
2022-11-03T05:31:01.949Z,87.73
2022-11-03T05:32:01.976Z,88.01
2022-11-03T05:33:01.965Z,87.92
2022-11-03T05:34:01.975Z,87.54
2022-11-03T05:35:01.981Z,87.63
2022-11-03T05:36:01.993Z,87.82
2022-11-03T05:37:01.999Z,88.10
2022-11-03T05:38:02.013Z,88.20
2022-11-03T05:39:02.017Z,88.77
2022-11-03T05:40:02.035Z,87.73
2022-11-03T05:41:02.040Z,88.29
2022-11-03T05:42:02.046Z,87.82
2022-11-03T05:43:02.053Z,87.92
2022-11-03T05:44:02.062Z,88.01
2022-11-03T05:45:02.066Z,87.35
2022-11-03T05:46:02.141Z,87.16
2022-11-03T05:47:04.579Z,87.16
2022-11-03T05:48:02.115Z,87.25
2022-11-03T05:49:02.106Z,87.25
2022-11-03T05:50:02.111Z,87.06
2022-11-03T05:51:02.121Z,86.59
2022-11-03T05:52:02.127Z,86.49
2022-11-03T05:53:02.135Z,86.49
2022-11-03T05:54:02.143Z,86.21
2022-11-03T05:55:02.156Z,86.49
2022-11-03T05:56:02.169Z,86.11
2022-11-03T05:57:02.168Z,86.30
2022-11-03T05:58:02.229Z,86.21
2022-11-03T05:59:02.185Z,86.87
2022-11-03T06:00:02.194Z,86.97
2022-11-03T06:01:02.200Z,87.16
2022-11-03T06:02:02.411Z,87.25
2022-11-03T06:03:02.315Z,86.40
2022-11-03T06:04:02.250Z,86.11
2022-11-03T06:05:02.237Z,86.40
2022-11-03T06:06:02.246Z,86.49
2022-11-03T06:07:02.251Z,86.40
2022-11-03T06:08:02.274Z,86.11
2022-11-03T06:09:02.268Z,86.21
2022-11-03T06:10:02.306Z,85.74
2022-11-03T06:11:02.286Z,86.21
2022-11-03T06:12:02.294Z,85.26
2022-11-03T06:13:02.304Z,84.69
2022-11-03T06:14:02.335Z,84.50
2022-11-03T06:15:02.320Z,84.03
2022-11-03T06:16:02.330Z,83.94
2022-11-03T06:17:02.336Z,83.94
2022-11-03T06:18:02.347Z,83.74
2022-11-03T06:19:02.354Z,83.84
2022-11-03T06:20:02.382Z,83.84
2022-11-03T06:21:02.396Z,83.55
2022-11-03T06:22:02.387Z,83.55
2022-11-03T06:23:02.390Z,83.40
2022-11-03T06:24:02.398Z,83.31
2022-11-03T06:25:02.411Z,83.08
2022-11-03T06:26:02.525Z,83.12
2022-11-03T06:27:02.421Z,83.55
2022-11-03T06:28:02.433Z,83.36
2022-11-03T06:29:02.437Z,83.08
2022-11-03T06:30:02.543Z,82.79
2022-11-03T06:31:02.453Z,82.79
2022-11-03T06:32:02.466Z,82.79
2022-11-03T06:33:02.470Z,82.93
2022-11-03T06:34:02.486Z,83.31
2022-11-03T06:35:02.595Z,83.27
2022-11-03T06:36:02.517Z,83.03
2022-11-03T06:37:02.509Z,82.74
2022-11-03T06:38:02.551Z,82.51
2022-11-03T06:39:02.521Z,82.17
2022-11-03T06:40:02.539Z,82.23
2022-11-03T06:41:02.540Z,82.23
2022-11-03T06:42:02.549Z,82.60
2022-11-03T06:43:02.555Z,82.84
2022-11-03T06:44:02.565Z,82.65
2022-11-03T06:45:02.589Z,81.98
2022-11-03T06:46:02.583Z,82.17
2022-11-03T06:47:02.590Z,82.36
2022-11-03T06:48:02.609Z,82.04
2022-11-03T06:49:02.613Z,82.27
2022-11-03T06:50:02.618Z,82.17
2022-11-03T06:51:02.638Z,82.27
2022-11-03T06:52:02.655Z,82.27
2022-11-03T06:53:02.640Z,82.36
2022-11-03T06:54:02.655Z,82.17
2022-11-03T06:55:02.657Z,81.98
2022-11-03T06:56:02.668Z,81.70
2022-11-03T06:57:02.673Z,81.41
2022-11-03T06:58:02.685Z,81.41
2022-11-03T06:59:02.697Z,80.84
2022-11-03T07:00:28.189Z,80.65
2022-11-03T07:01:03.681Z,80.27
2022-11-03T07:02:02.834Z,79.90
2022-11-03T07:03:02.741Z,79.61
2022-11-03T07:04:02.738Z,78.09
2022-11-03T07:05:02.746Z,78.09
2022-11-03T07:06:02.754Z,78.38
2022-11-03T07:07:02.793Z,78.95
2022-11-03T07:08:02.787Z,79.23
2022-11-03T07:09:02.778Z,79.80
2022-11-03T07:10:02.789Z,79.71
2022-11-03T07:11:02.803Z,79.61
2022-11-03T07:12:02.809Z,79.90
2022-11-03T07:13:06.890Z,80.18
2022-11-03T07:14:02.826Z,80.56
2022-11-03T07:15:02.877Z,81.45
2022-11-03T07:16:02.842Z,81.13
2022-11-03T07:17:02.853Z,80.88
2022-11-03T07:18:02.860Z,81.65
2022-11-03T07:19:02.869Z,81.60
2022-11-03T07:20:02.882Z,81.79
2022-11-03T07:21:02.888Z,81.45
2022-11-03T07:22:02.901Z,81.36
2022-11-03T07:23:02.901Z,81.26
2022-11-03T07:24:02.957Z,80.88
2022-11-03T07:25:02.923Z,80.88
2022-11-03T07:26:02.929Z,81.07
2022-11-03T07:27:02.938Z,80.79
2022-11-03T07:28:03.049Z,80.79
2022-11-03T07:29:02.956Z,80.69
2022-11-03T07:30:02.971Z,81.17
2022-11-03T07:31:02.972Z,80.69
2022-11-03T07:32:02.985Z,80.98
2022-11-03T07:33:02.991Z,81.26
2022-11-03T07:34:03.011Z,81.65
2022-11-03T07:35:03.012Z,81.74
2022-11-03T07:36:15.262Z,80.79
2022-11-03T07:37:03.070Z,80.22
2022-11-03T07:38:03.321Z,80.51
2022-11-03T07:39:03.066Z,80.03
2022-11-03T07:40:03.076Z,80.03
2022-11-03T07:41:03.068Z,79.79
2022-11-03T07:42:03.076Z,80.60
2022-11-03T07:43:03.083Z,79.84
2022-11-03T07:44:03.093Z,76.32
2022-11-03T07:45:03.102Z,75.51
2022-11-03T07:46:03.122Z,76.42
2022-11-03T07:47:03.120Z,78.27
2022-11-03T07:48:04.487Z,78.23
2022-11-03T07:49:03.137Z,78.74
2022-11-03T07:50:03.150Z,78.45
2022-11-03T07:51:03.156Z,78.08
2022-11-03T07:52:03.208Z,78.08
2022-11-03T07:53:03.177Z,78.27
2022-11-03T07:54:03.186Z,78.45
2022-11-03T07:55:03.192Z,79.60
2022-11-03T07:56:03.309Z,79.79
2022-11-03T07:57:03.211Z,79.97
2022-11-03T07:58:03.411Z,79.97
2022-11-03T07:59:03.233Z,79.22
2022-11-03T08:00:07.085Z,79.03
2022-11-03T08:01:03.253Z,77.12
2022-11-03T08:02:03.461Z,76.37
2022-11-03T08:03:03.388Z,74.27
2022-11-03T08:04:03.280Z,77.51
2022-11-03T08:05:03.296Z,78.08
2022-11-03T08:06:04.925Z,77.70
2022-11-03T08:07:03.306Z,75.99
2022-11-03T08:08:03.321Z,74.31
2022-11-03T08:09:03.333Z,71.71
2022-11-03T08:10:03.351Z,71.62
2022-11-03T08:11:03.462Z,73.80
2022-11-03T08:12:03.384Z,73.84
2022-11-03T08:13:03.447Z,75.17
2022-11-03T08:14:03.375Z,75.36
2022-11-03T08:15:03.385Z,76.78
2022-11-03T08:16:03.413Z,77.36
2022-11-03T08:17:03.402Z,74.41
2022-11-03T08:18:03.418Z,71.75
2022-11-03T08:19:03.420Z,72.51
2022-11-03T08:20:03.434Z,72.99
2022-11-03T08:21:03.441Z,74.22
2022-11-03T08:22:03.450Z,74.03
2022-11-03T08:23:24.863Z,74.03
2022-11-03T08:24:03.469Z,75.84
2022-11-03T08:25:03.477Z,75.96
2022-11-03T08:26:03.493Z,74.54
2022-11-03T08:27:03.564Z,74.07
2022-11-03T08:28:03.529Z,73.40
2022-11-03T08:29:03.618Z,72.74
2022-11-03T08:30:03.533Z,72.55
2022-11-03T08:31:07.884Z,71.59
2022-11-03T08:32:03.550Z,71.69
2022-11-03T08:33:03.742Z,73.18
2022-11-03T08:34:03.579Z,75.30
2022-11-03T08:35:03.581Z,75.30
2022-11-03T08:36:03.594Z,75.17
2022-11-03T08:37:03.599Z,75.26
2022-11-03T08:38:03.853Z,77.17
2022-11-03T08:39:03.621Z,75.93
2022-11-03T08:40:03.627Z,76.31
2022-11-03T08:41:03.634Z,75.55
2022-11-03T08:42:03.666Z,77.55
2022-11-03T08:43:03.754Z,76.40
2022-11-03T08:44:03.689Z,76.31
2022-11-03T08:45:03.673Z,76.40
2022-11-03T08:46:13.854Z,74.79
2022-11-03T08:47:03.695Z,76.12
2022-11-03T08:48:04.119Z,77.64
2022-11-03T08:49:03.711Z,79.16
2022-11-03T08:50:03.724Z,76.31
2022-11-03T08:51:03.734Z,74.31
2022-11-03T08:52:03.746Z,76.59
2022-11-03T08:53:03.767Z,75.36
2022-11-03T08:54:03.762Z,75.36
2022-11-03T08:55:03.776Z,74.41
2022-11-03T08:56:03.783Z,72.99
2022-11-03T08:57:03.789Z,72.99
2022-11-03T08:58:04.042Z,74.22
2022-11-03T08:59:03.814Z,74.03
2022-11-03T09:00:03.838Z,73.18
2022-11-03T09:01:03.857Z,73.74
2022-11-03T09:02:03.946Z,74.60
2022-11-03T09:03:03.849Z,74.22
2022-11-03T09:04:03.967Z,74.22
2022-11-03T09:05:03.867Z,75.07
2022-11-03T09:06:03.889Z,74.98
2022-11-03T09:07:03.888Z,76.12
2022-11-03T09:10:21.224Z,80.58
2022-11-03T09:11:03.929Z,80.63
2022-11-03T09:12:03.936Z,80.05
2022-11-03T09:13:04.271Z,78.72
2022-11-03T09:14:03.960Z,79.11
2022-11-03T09:15:03.965Z,79.20
2022-11-03T09:16:03.995Z,79.68
2022-11-03T09:18:04.222Z,79.77
2022-11-03T09:19:04.005Z,79.39
2022-11-03T09:20:04.021Z,79.58
2022-11-03T09:21:04.026Z,79.49
2022-11-03T09:22:04.035Z,79.58
2022-11-03T09:23:04.043Z,81.77
2022-11-03T09:24:04.059Z,81.29
2022-11-03T09:25:04.062Z,79.11
2022-11-03T09:26:04.078Z,78.53
2022-11-03T09:27:04.083Z,78.34
2022-11-03T09:28:04.347Z,76.82
2022-11-03T09:29:04.103Z,76.54
2022-11-03T09:30:13.252Z,76.03
2022-11-03T09:31:04.123Z,77.36
2022-11-03T09:32:04.154Z,77.36
2022-11-03T09:33:04.142Z,78.11
2022-11-03T09:34:04.165Z,79.01
2022-11-03T09:35:04.167Z,76.88
2022-11-03T09:36:04.173Z,76.31
2022-11-03T09:37:04.183Z,77.39
2022-11-03T09:38:04.420Z,78.25
2022-11-03T09:39:04.202Z,78.06
2022-11-03T09:40:04.225Z,76.44
2022-11-03T09:41:09.689Z,76.69
2022-11-03T09:42:04.242Z,78.53
2022-11-03T09:43:04.461Z,77.87
2022-11-03T09:44:04.249Z,78.72
2022-11-03T09:45:04.261Z,79.30
2022-11-03T09:46:04.275Z,79.20
2022-11-03T09:47:04.289Z,79.96
2022-11-03T09:48:04.764Z,80.82
2022-11-03T09:49:04.301Z,81.48
2022-11-03T09:50:04.320Z,81.20
2022-11-03T09:51:04.321Z,80.76
2022-11-03T09:52:04.346Z,79.62
2022-11-03T09:53:04.651Z,78.57
2022-11-03T09:54:04.403Z,78.96
2022-11-03T09:55:04.381Z,78.10
2022-11-03T09:56:04.374Z,78.29
2022-11-03T09:57:04.382Z,78.77
2022-11-03T09:58:04.696Z,77.43
2022-11-03T09:59:04.403Z,76.86
2022-11-03T10:00:04.412Z,77.15
2022-11-03T10:01:04.496Z,76.35
2022-11-03T10:02:04.726Z,76.63
2022-11-03T10:03:04.922Z,76.82
2022-11-03T10:04:04.471Z,78.53
2022-11-03T10:05:10.741Z,78.63
2022-11-03T10:06:04.480Z,79.39
2022-11-03T10:07:04.486Z,81.38
2022-11-03T10:08:04.503Z,78.82
2022-11-03T10:09:04.506Z,78.25
2022-11-03T10:10:04.517Z,77.39
2022-11-03T10:11:04.529Z,78.25
2022-11-03T10:12:04.542Z,79.68
2022-11-03T10:13:04.954Z,81.33
2022-11-03T10:14:04.558Z,79.05
2022-11-03T10:15:04.576Z,78.16
2022-11-03T10:16:04.578Z,78.25
2022-11-03T10:17:04.590Z,78.72
2022-11-03T10:18:04.600Z,78.72
2022-11-03T10:19:04.611Z,80.82
2022-11-03T10:20:04.654Z,81.33
2022-11-03T10:21:04.648Z,81.24
2022-11-03T10:22:04.642Z,80.47
2022-11-03T10:23:05.081Z,78.48
2022-11-03T10:24:04.660Z,79.14
2022-11-03T10:25:04.678Z,80.29
2022-11-03T10:26:04.682Z,78.86
2022-11-03T10:27:04.694Z,77.91
2022-11-03T10:28:04.703Z,76.67
2022-11-03T10:29:04.835Z,76.48
2022-11-03T10:30:04.726Z,76.86
2022-11-03T10:31:12.923Z,78.86
2022-11-03T10:32:04.743Z,78.77
2022-11-03T10:33:05.095Z,78.57
2022-11-03T10:34:04.765Z,78.86
2022-11-03T10:35:04.778Z,79.24
2022-11-03T10:36:04.805Z,80.05
2022-11-03T10:37:04.798Z,79.91
2022-11-03T10:38:04.807Z,80.38
2022-11-03T10:39:04.823Z,79.81
2022-11-03T10:40:06.990Z,79.24
2022-11-03T10:41:04.842Z,79.33
2022-11-03T10:42:04.851Z,78.86
2022-11-03T10:43:05.198Z,78.38
2022-11-03T10:44:04.928Z,78.38
2022-11-03T10:45:04.885Z,78.67
2022-11-03T10:46:08.086Z,78.86
2022-11-03T10:47:04.909Z,77.24
2022-11-03T10:48:04.916Z,78.29
2022-11-03T10:49:04.945Z,79.52
2022-11-03T10:50:04.936Z,81.05
2022-11-03T10:51:05.014Z,80.82
2022-11-03T10:52:04.975Z,81.33
2022-11-03T10:53:05.478Z,81.43
2022-11-03T10:54:04.979Z,82.95
2022-11-03T10:55:04.997Z,81.24
2022-11-03T10:56:05.001Z,81.24
2022-11-03T10:57:05.014Z,81.24
2022-11-03T10:58:05.133Z,80.86
2022-11-03T10:59:05.036Z,79.81
2022-11-03T11:00:05.050Z,78.29
2022-11-03T11:01:05.120Z,79.81
2022-11-03T11:02:05.188Z,80.76
2022-11-03T11:03:05.494Z,81.24
2022-11-03T11:04:05.130Z,80.66
2022-11-03T11:05:05.098Z,80.19
2022-11-03T11:06:05.111Z,79.72
2022-11-03T11:07:05.138Z,78.77
2022-11-03T11:08:05.184Z,78.00
2022-11-03T11:09:05.145Z,78.57
2022-11-03T11:10:05.153Z,81.33
2022-11-03T11:11:05.168Z,80.47
2022-11-03T11:12:05.177Z,77.91
2022-11-03T11:13:05.613Z,77.05
2022-11-03T11:14:05.197Z,77.24
2022-11-03T11:15:05.208Z,77.37
2022-11-03T11:16:05.216Z,76.71
2022-11-03T11:17:05.229Z,76.14
2022-11-03T11:18:05.239Z,74.90
2022-11-03T11:19:05.253Z,75.28
2022-11-03T11:20:05.280Z,75.28
2022-11-03T11:21:05.276Z,75.38
2022-11-03T11:22:05.283Z,77.00
2022-11-03T11:23:05.616Z,76.90
2022-11-03T11:24:05.325Z,75.95
2022-11-03T11:25:05.318Z,75.28
2022-11-03T11:26:05.339Z,74.80
2022-11-03T11:27:05.340Z,75.38
2022-11-03T11:28:05.349Z,76.33
2022-11-03T11:29:05.365Z,75.47
2022-11-03T11:30:05.373Z,74.99
2022-11-03T11:31:05.394Z,75.09
2022-11-03T11:32:05.393Z,75.28
2022-11-03T11:33:05.772Z,74.99
2022-11-03T11:34:05.416Z,74.33
2022-11-03T11:35:05.436Z,74.99
2022-11-03T11:36:05.447Z,75.38
2022-11-03T11:37:05.452Z,75.38
2022-11-03T11:38:05.461Z,75.57
2022-11-03T11:39:05.473Z,76.29
2022-11-03T11:40:05.503Z,78.29
2022-11-03T11:41:05.499Z,79.52
2022-11-03T11:42:05.509Z,78.77
2022-11-03T11:43:05.857Z,78.38
2022-11-03T11:44:05.527Z,79.33
2022-11-03T11:45:05.552Z,79.43
2022-11-03T11:46:05.554Z,78.77
2022-11-03T11:47:05.561Z,77.91
2022-11-03T11:48:05.573Z,77.34
2022-11-03T11:49:05.586Z,78.19
2022-11-03T11:50:05.599Z,78.38
2022-11-03T11:51:05.607Z,78.57
2022-11-03T11:52:05.615Z,81.24
2022-11-03T11:53:06.026Z,79.72
2022-11-03T11:54:17.425Z,78.61
2022-11-03T11:55:05.651Z,77.91
2022-11-03T11:56:05.679Z,77.85
2022-11-03T11:57:05.672Z,77.47
2022-11-03T11:58:05.685Z,78.04
2022-11-03T11:59:05.698Z,79.09
2022-11-03T12:00:05.704Z,78.23
2022-11-03T12:01:05.718Z,77.09
2022-11-03T12:02:05.727Z,75.76
2022-11-03T12:03:06.212Z,76.42
2022-11-03T12:04:05.976Z,76.71
2022-11-03T12:05:05.765Z,78.42
2022-11-03T12:06:05.781Z,77.85
2022-11-03T12:07:05.786Z,77.47
2022-11-03T12:08:06.042Z,78.29
2022-11-03T12:09:05.807Z,78.57
2022-11-03T12:10:05.817Z,77.97
2022-11-03T12:11:05.883Z,78.82
2022-11-03T12:12:08.796Z,78.53
2022-11-03T12:13:05.853Z,80.53
2022-11-03T12:14:05.860Z,79.58
2022-11-03T12:15:05.874Z,80.44
2022-11-03T12:16:05.884Z,80.91
2022-11-03T12:17:05.896Z,81.38
2022-11-03T12:18:06.182Z,81.77
2022-11-03T12:19:05.918Z,81.96
2022-11-03T12:20:05.927Z,81.58
2022-11-03T12:21:05.963Z,80.82
2022-11-03T12:22:05.949Z,80.57
2022-11-03T12:23:05.963Z,80.00
2022-11-03T12:24:05.972Z,80.19
2022-11-03T12:25:05.983Z,80.29
2022-11-03T12:26:06.093Z,79.52
2022-11-03T12:27:06.007Z,81.71
2022-11-03T12:28:06.538Z,80.00
2022-11-03T12:29:06.032Z,80.86
2022-11-03T12:30:06.037Z,81.43
2022-11-03T12:31:06.069Z,81.33
2022-11-03T12:32:07.340Z,80.76
2022-11-03T12:33:06.417Z,81.33
2022-11-03T12:34:06.081Z,81.05
2022-11-03T12:35:06.104Z,78.29
2022-11-03T12:36:06.104Z,77.15
2022-11-03T12:37:06.117Z,76.86
2022-11-03T12:38:06.126Z,76.29
2022-11-03T12:39:06.145Z,75.34
2022-11-03T12:40:06.157Z,74.20
2022-11-03T12:41:06.161Z,72.49
2022-11-03T12:42:06.168Z,71.82
2022-11-03T12:43:06.499Z,71.91
2022-11-03T12:44:06.272Z,71.82
2022-11-03T12:45:06.204Z,71.15
2022-11-03T12:46:06.230Z,70.77
2022-11-03T12:47:06.232Z,73.82
2022-11-03T12:48:06.243Z,79.01
2022-11-03T12:49:06.251Z,81.77
2022-11-03T12:50:06.259Z,81.86
2022-11-03T12:51:06.276Z,81.29
2022-11-03T12:52:08.191Z,79.63
2022-11-03T12:53:06.525Z,79.54
2022-11-03T12:54:06.303Z,78.50
2022-11-03T12:55:06.316Z,79.25
2022-11-03T12:56:06.327Z,80.40
2022-11-03T12:57:06.350Z,79.73